Louisville, Nebraska
Current Conditions -  °F | °C
As of 3:15 AM on Friday 19 Dec 2014 (Local Time) from KPMV Reporting Station
Haze Haze  
Wind Chill: 29°   Ceiling: 500
Heat Index: 29°   Visibility: 4mi
Dew Point: 27°   Wind: 3mph
Humidity: 92%   Direction: 160°SSE
Pressure: 30.24"   Gusts: NA
Location:  41°N, 96.16°W
Report Text: KPMV 190915Z AUTO 16003KT 4SM BR BKN005 OVC010 M01/M03 A3024 RMK AO2 T10151026
Loading
Personal Weather Stations






























Interactive Weather Map New forecast layout! Learn more

10-Day Weather Forecast

Advertisements
Track Severe Weather on mobile